Terminal Aerodrome Forecast
Issued by NWS

Home | Current Version | Previous Version | Text Only | Print | Product List | Glossary On
Versions: 1 2 3 4 5 6 7 8 9 10 11 12 13
000
FTUS44 KLZK 292300 RRA
TAFBPK
TAF
KBPK 292341Z 3000/3024 33008KT P6SM OVC035
     FM300300 34007KT P6SM SCT035
     FM300800 35004KT P6SM SCT012
     FM301600 05004KT P6SM FEW250
     FM302000 11004KT P6SM SCT250=

USA.gov is the U.S. government's official web portal to all federal, state and local government web resources and services.